Nrc Patriot II — WDA8587 — position and weather

sailwx.info

Track history (hours):
 
Tides and Currents Weather Stations Pressure Air Temp Water Temp Dewpoint Dewpoint Depression Visibility Wind Speed Wind Dir Waves Ship Positions

Nrc Patriot II

Owner: National Response Corporation, HOUSTON, TX. More information available from US FCC via Universal Licensing System and Coast Guard Vessel Documentation Center.

Last reported at 2014-Dec-20 19:06 UTC. Time now 2014-Dec-21 20:06 UTC.
Position N 33°43' W 118°07'.

Length 30 m; draft 3.5 m.

Type: Port tender. MMSI: 366855940.

Date/timePositionNaut miles runAvg speedWind from/ knotsBaromVisibWave heightAir tempDewpointWater temp
2014-Dec-20 19:06N 33°43' W 118°07'  
2014-Dec-18 01:17N 33°44' W 118°09'1 0.0
2014-Dec-16 19:31N 33°44' W 118°10'  
2014-Dec-13 18:08N 33°43' W 118°07'3 0.1
2014-Dec-12 18:16N 33°40' W 118°04'5 4.1
2014-Dec-12 17:03N 33°44' W 118°08'6 0.2
2014-Dec-11 10:33N 33°40' W 118°03'0 0.0
2014-Dec-11 09:23N 33°40' W 118°03'0 0.0
2014-Dec-11 08:05N 33°40' W 118°03'0 0.0
2014-Dec-11 07:22N 33°40' W 118°03'7 3.2
2014-Dec-11 05:16N 33°42' W 118°10'5 7.5
2014-Dec-11 04:33N 33°44' W 118°16'0 0.1
2014-Dec-11 03:31N 33°44' W 118°16'0 0.0
2014-Dec-11 02:33N 33°44' W 118°16'5 5.4
2014-Dec-11 01:33N 33°40' W 118°12'8 6.9
2014-Dec-11 00:26N 33°40' W 118°02'0 0.0
2014-Dec-10 23:33N 33°40' W 118°02'0 0.0
2014-Dec-10 22:31N 33°40' W 118°02'0 0.0
2014-Dec-10 21:33N 33°40' W 118°02'0 0.1
2014-Dec-10 19:32N 33°40' W 118°03'  
Track history (hours):
 
Tides and Currents Weather Stations Pressure Air Temp Water Temp Dewpoint Dewpoint Depression Visibility Wind Speed Wind Dir Waves Ship Positions

Nrc Patriot II

Owner: National Response Corporation, HOUSTON, TX. More information available from US FCC via Universal Licensing System and Coast Guard Vessel Documentation Center.

Last reported at 2014-Dec-20 19:06 UTC. Time now 2014-Dec-21 20:06 UTC.
Position N 33°43' W 118°07'.

Length 30 m; draft 3.5 m.

Type: Port tender. MMSI: 366855940.

Date/timePositionNaut miles runAvg speedWind from/ knotsBaromVisibWave heightAir tempDewpointWater temp
2014-Dec-20 19:06N 33°43' W 118°07'  
2014-Dec-18 01:17N 33°44' W 118°09'1 0.0
2014-Dec-16 19:31N 33°44' W 118°10'  
2014-Dec-13 18:08N 33°43' W 118°07'3 0.1
2014-Dec-12 18:16N 33°40' W 118°04'5 4.1
2014-Dec-12 17:03N 33°44' W 118°08'6 0.2
2014-Dec-11 10:33N 33°40' W 118°03'0 0.0
2014-Dec-11 09:23N 33°40' W 118°03'0 0.0
2014-Dec-11 08:05N 33°40' W 118°03'0 0.0
2014-Dec-11 07:22N 33°40' W 118°03'7 3.2
2014-Dec-11 05:16N 33°42' W 118°10'5 7.5
2014-Dec-11 04:33N 33°44' W 118°16'0 0.1
2014-Dec-11 03:31N 33°44' W 118°16'0 0.0
2014-Dec-11 02:33N 33°44' W 118°16'5 5.4
2014-Dec-11 01:33N 33°40' W 118°12'8 6.9
2014-Dec-11 00:26N 33°40' W 118°02'0 0.0
2014-Dec-10 23:33N 33°40' W 118°02'0 0.0
2014-Dec-10 22:31N 33°40' W 118°02'0 0.0
2014-Dec-10 21:33N 33°40' W 118°02'0 0.1
2014-Dec-10 19:32N 33°40' W 118°03'  

Dump ship's entire track history